createdAt,value
2016-03-22T00:00:08.579Z,0
2016-03-22T00:01:08.614Z,0
2016-03-22T00:02:08.569Z,0
2016-03-22T00:03:08.588Z,0
2016-03-22T00:04:08.575Z,0
2016-03-22T00:05:08.577Z,0
2016-03-22T00:06:08.565Z,0
2016-03-22T00:07:08.567Z,0
2016-03-22T00:08:08.585Z,0
2016-03-22T00:09:08.588Z,0
2016-03-22T00:10:08.575Z,0
2016-03-22T00:11:08.609Z,0
2016-03-22T00:12:08.566Z,0
2016-03-22T00:13:08.552Z,0
2016-03-22T00:14:08.554Z,0
2016-03-22T00:15:08.558Z,0
2016-03-22T00:16:08.560Z,0
2016-03-22T00:17:08.578Z,0
2016-03-22T00:18:08.566Z,0
2016-03-22T00:19:08.584Z,0
2016-03-22T00:20:08.555Z,0
2016-03-22T00:21:08.574Z,0
2016-03-22T00:22:08.560Z,0
2016-03-22T00:23:08.595Z,0
2016-03-22T00:24:08.551Z,0
2016-03-22T00:25:08.537Z,0
2016-03-22T00:26:08.571Z,0
2016-03-22T00:27:08.574Z,0
2016-03-22T00:28:08.529Z,0
2016-03-22T00:29:08.548Z,0
2016-03-22T00:30:08.566Z,0
2016-03-22T00:31:08.537Z,0
2016-03-22T00:32:08.571Z,0
2016-03-22T00:33:08.527Z,0
2016-03-22T00:34:08.561Z,0
2016-03-22T00:35:08.532Z,0
2016-03-22T00:36:08.582Z,0
2016-03-22T00:37:08.521Z,0
2016-03-22T00:38:08.525Z,0
2016-03-22T00:39:08.496Z,0
2016-03-22T00:40:08.577Z,0
2016-03-22T00:41:08.517Z,0
2016-03-22T00:42:08.504Z,0
2016-03-22T00:43:08.507Z,0
2016-03-22T00:44:08.525Z,0
2016-03-22T00:45:08.543Z,0
2016-03-22T00:46:08.515Z,0
2016-03-22T00:47:08.518Z,0
2016-03-22T00:48:08.536Z,0
2016-03-22T00:49:08.492Z,0
2016-03-22T00:50:08.510Z,0
2016-03-22T00:51:08.512Z,0
2016-03-22T00:52:08.359Z,0
2016-03-22T00:53:08.517Z,0
2016-03-22T00:54:08.490Z,0
2016-03-22T00:55:08.492Z,0
2016-03-22T00:56:08.354Z,0
2016-03-22T00:57:08.528Z,0
2016-03-22T00:58:08.500Z,0
2016-03-22T00:59:08.518Z,0
2016-03-22T01:00:08.506Z,0
2016-03-22T01:01:08.539Z,0
2016-03-22T01:02:08.510Z,0
2016-03-22T01:03:08.483Z,0
2016-03-22T01:04:08.532Z,0
2016-03-22T01:05:08.488Z,0
2016-03-22T01:06:08.522Z,0
2016-03-22T01:07:08.493Z,0
2016-03-22T01:08:08.496Z,0
2016-03-22T01:09:08.499Z,0
2016-03-22T01:10:08.485Z,0
2016-03-22T01:11:08.488Z,0
2016-03-22T01:12:08.460Z,0
2016-03-22T01:13:08.446Z,0
2016-03-22T01:14:08.497Z,0
2016-03-22T01:15:08.484Z,0
2016-03-22T01:16:08.455Z,0
2016-03-22T01:17:08.489Z,0
2016-03-22T01:18:08.460Z,0
2016-03-22T01:19:08.462Z,0
2016-03-22T01:20:08.497Z,0
2016-03-22T01:21:08.484Z,0
2016-03-22T01:22:08.455Z,0
2016-03-22T01:23:08.474Z,0
2016-03-22T01:24:08.461Z,0
2016-03-22T01:25:08.447Z,0
2016-03-22T01:26:08.467Z,0
2016-03-22T01:27:08.453Z,0
2016-03-22T01:28:08.456Z,0
2016-03-22T01:29:08.442Z,0
2016-03-22T01:30:08.461Z,0
2016-03-22T01:31:08.448Z,0
2016-03-22T01:32:08.451Z,0
2016-03-22T01:33:08.422Z,0
2016-03-22T01:34:08.472Z,0
2016-03-22T01:35:08.428Z,0
2016-03-22T01:36:08.446Z,0
2016-03-22T01:37:08.433Z,0
2016-03-22T01:38:08.451Z,0
2016-03-22T01:39:08.439Z,0
2016-03-22T01:40:08.441Z,0
2016-03-22T01:41:08.444Z,0
2016-03-22T01:42:08.415Z,0
2016-03-22T01:43:08.449Z,0
2016-03-22T01:44:08.452Z,0
2016-03-22T01:45:08.439Z,0
2016-03-22T01:46:08.410Z,0
2016-03-22T01:47:08.444Z,0
2016-03-22T01:48:08.416Z,0
2016-03-22T01:49:08.450Z,0
2016-03-22T01:50:08.421Z,0
2016-03-22T01:51:08.409Z,0
2016-03-22T01:52:08.411Z,0
2016-03-22T01:53:08.414Z,0
2016-03-22T01:54:08.417Z,0
2016-03-22T01:55:08.403Z,0
2016-03-22T01:56:08.437Z,0
2016-03-22T01:57:08.405Z,0
2016-03-22T01:58:08.394Z,0
2016-03-22T01:59:08.368Z,0
2016-03-22T02:00:08.357Z,0
2016-03-22T02:01:08.378Z,0
2016-03-22T02:02:08.338Z,0
2016-03-22T02:03:08.335Z,0
2016-03-22T02:04:08.302Z,0
2016-03-22T02:05:08.331Z,0
2016-03-22T02:06:08.313Z,0
2016-03-22T02:07:08.296Z,0
2016-03-22T02:08:08.298Z,0
2016-03-22T02:09:08.298Z,0
2016-03-22T02:10:08.284Z,0
2016-03-22T02:11:08.317Z,0
2016-03-22T02:12:08.318Z,0
2016-03-22T02:13:08.288Z,0
2016-03-22T02:14:08.290Z,0
2016-03-22T02:15:08.261Z,0
2016-03-22T02:16:08.294Z,0
2016-03-22T02:17:08.297Z,0
2016-03-22T02:18:08.253Z,0
2016-03-22T02:19:08.255Z,0
2016-03-22T02:20:08.273Z,0
2016-03-22T02:21:08.292Z,0
2016-03-22T02:22:08.278Z,0
2016-03-22T02:23:08.234Z,0
2016-03-22T02:24:08.300Z,0
2016-03-22T02:25:08.286Z,0
2016-03-22T02:26:08.305Z,0
2016-03-22T02:27:08.261Z,0
2016-03-22T02:28:08.091Z,0
2016-03-22T02:29:08.250Z,0
2016-03-22T02:30:08.243Z,0
2016-03-22T02:31:08.260Z,0
2016-03-22T02:32:08.279Z,0
2016-03-22T02:33:08.219Z,0
2016-03-22T02:34:08.253Z,0
2016-03-22T02:35:08.272Z,0
2016-03-22T02:36:08.243Z,0
2016-03-22T02:37:08.229Z,0
2016-03-22T02:38:08.248Z,0
2016-03-22T02:39:08.235Z,0
2016-03-22T02:40:08.222Z,0
2016-03-22T02:41:08.241Z,0
2016-03-22T02:42:08.243Z,0
2016-03-22T02:43:08.245Z,0
2016-03-22T02:44:08.218Z,0
2016-03-22T02:45:08.251Z,0
2016-03-22T02:46:08.222Z,0
2016-03-22T02:47:08.225Z,0
2016-03-22T02:48:08.244Z,0
2016-03-22T02:49:08.216Z,0
2016-03-22T02:50:08.219Z,0
2016-03-22T02:51:08.283Z,0
2016-03-22T02:52:08.255Z,0
2016-03-22T02:53:08.211Z,0
2016-03-22T02:54:08.244Z,0
2016-03-22T02:55:08.232Z,0
2016-03-22T02:56:08.250Z,0
2016-03-22T02:57:08.238Z,0
2016-03-22T02:58:08.208Z,0
2016-03-22T02:59:08.211Z,0
2016-03-22T03:00:08.229Z,0
2016-03-22T03:01:08.232Z,0
2016-03-22T03:02:08.235Z,0
2016-03-22T03:03:08.221Z,0
2016-03-22T03:04:08.068Z,0
2016-03-22T03:05:08.212Z,0
2016-03-22T03:06:08.230Z,0
2016-03-22T03:07:08.201Z,0
2016-03-22T03:08:08.220Z,0
2016-03-22T03:09:08.207Z,0
2016-03-22T03:10:08.209Z,0
2016-03-22T03:11:08.212Z,0
2016-03-22T03:12:08.215Z,0
2016-03-22T03:13:08.217Z,0
2016-03-22T03:14:08.173Z,0
2016-03-22T03:15:08.207Z,0
2016-03-22T03:16:08.225Z,0
2016-03-22T03:17:08.182Z,0
2016-03-22T03:18:08.169Z,0
2016-03-22T03:19:08.186Z,0
2016-03-22T03:20:08.190Z,0
2016-03-22T03:21:08.208Z,0
2016-03-22T03:22:08.179Z,0
2016-03-22T03:23:08.182Z,0
2016-03-22T03:24:08.169Z,0
2016-03-22T03:25:08.171Z,0
2016-03-22T03:26:08.206Z,0
2016-03-22T03:27:08.224Z,0
2016-03-22T03:28:08.179Z,0
2016-03-22T03:29:08.199Z,0
2016-03-22T03:30:08.169Z,0
2016-03-22T03:31:08.235Z,0
2016-03-22T03:32:08.172Z,0
2016-03-22T03:33:08.159Z,0
2016-03-22T03:34:08.193Z,0
2016-03-22T03:35:08.180Z,0
2016-03-22T03:36:08.168Z,0
2016-03-22T03:37:08.170Z,0
2016-03-22T03:38:08.173Z,0
2016-03-22T03:39:08.191Z,0
2016-03-22T03:40:08.147Z,0
2016-03-22T03:41:08.165Z,0
2016-03-22T03:42:08.167Z,0
2016-03-22T03:43:08.187Z,0
2016-03-22T03:44:08.189Z,0
2016-03-22T03:45:08.176Z,0
2016-03-22T03:46:08.147Z,0
2016-03-22T03:47:08.181Z,0
2016-03-22T03:48:08.168Z,0
2016-03-22T03:49:08.140Z,0
2016-03-22T03:50:08.127Z,0
2016-03-22T03:51:08.144Z,0
2016-03-22T03:52:08.148Z,0
2016-03-22T03:53:08.135Z,0
2016-03-22T03:54:08.138Z,0
2016-03-22T03:55:08.156Z,0
2016-03-22T03:56:08.127Z,0
2016-03-22T03:57:08.130Z,0
2016-03-22T03:58:08.164Z,0
2016-03-22T03:59:08.151Z,0
2016-03-22T04:00:08.122Z,0
2016-03-22T04:01:08.188Z,0
2016-03-22T04:02:08.127Z,0
2016-03-22T04:03:08.130Z,0
2016-03-22T04:04:08.133Z,0
2016-03-22T04:05:08.120Z,0
2016-03-22T04:06:08.107Z,0
2016-03-22T04:07:08.126Z,0
2016-03-22T04:08:08.129Z,0
2016-03-22T04:09:08.099Z,0
2016-03-22T04:10:08.134Z,0
2016-03-22T04:11:08.120Z,0
2016-03-22T04:12:08.107Z,0
2016-03-22T04:13:08.126Z,0
2016-03-22T04:14:08.082Z,0
2016-03-22T04:15:07.959Z,0
2016-03-22T04:16:08.103Z,0
2016-03-22T04:17:08.106Z,0
2016-03-22T04:18:08.108Z,0
2016-03-22T04:19:08.095Z,0
2016-03-22T04:20:08.083Z,0
2016-03-22T04:21:08.085Z,0
2016-03-22T04:22:08.089Z,0
2016-03-22T04:23:08.075Z,0
2016-03-22T04:24:08.093Z,0
2016-03-22T04:25:08.300Z,0
2016-03-22T04:26:08.083Z,0
2016-03-22T04:27:08.055Z,0
2016-03-22T04:28:08.088Z,0
2016-03-22T04:29:08.075Z,0
2016-03-22T04:30:08.078Z,0
2016-03-22T04:31:08.081Z,0
2016-03-22T04:32:08.083Z,0
2016-03-22T04:33:08.085Z,0
2016-03-22T04:34:08.105Z,0
2016-03-22T04:35:08.076Z,0
2016-03-22T04:36:08.063Z,0
2016-03-22T04:37:08.065Z,0
2016-03-22T04:38:08.084Z,0
2016-03-22T04:39:08.071Z,0
2016-03-22T04:40:08.262Z,0
2016-03-22T04:41:08.046Z,0
2016-03-22T04:42:08.048Z,0
2016-03-22T04:43:08.065Z,0
2016-03-22T04:44:08.069Z,0
2016-03-22T04:45:08.040Z,0
2016-03-22T04:46:08.042Z,0
2016-03-22T04:47:08.062Z,0
2016-03-22T04:48:08.048Z,0
2016-03-22T04:49:08.036Z,0
2016-03-22T04:50:08.039Z,0
2016-03-22T04:51:08.056Z,0
2016-03-22T04:52:08.028Z,0
2016-03-22T04:53:08.062Z,0
2016-03-22T04:54:08.033Z,0
2016-03-22T04:55:08.098Z,0
2016-03-22T04:56:08.038Z,0
2016-03-22T04:57:08.042Z,4
2016-03-22T04:58:08.044Z,4
2016-03-22T04:59:08.047Z,4
2016-03-22T05:00:08.002Z,0
2016-03-22T05:01:08.021Z,0
2016-03-22T05:02:08.008Z,4
2016-03-22T05:03:08.026Z,4
2016-03-22T05:04:08.044Z,4
2016-03-22T05:05:08.015Z,4
2016-03-22T05:06:08.050Z,8
2016-03-22T05:07:08.037Z,4
2016-03-22T05:08:08.008Z,4
2016-03-22T05:09:08.011Z,8
2016-03-22T05:10:07.310Z,8
2016-03-22T05:11:08.048Z,12
2016-03-22T05:12:08.035Z,8
2016-03-22T05:13:08.006Z,8
2016-03-22T05:14:08.024Z,12
2016-03-22T05:15:08.012Z,12
2016-03-22T05:16:07.998Z,16
2016-03-22T05:17:07.987Z,16
2016-03-22T05:18:08.004Z,16
2016-03-22T05:19:08.007Z,16
2016-03-22T05:20:08.009Z,24
2016-03-22T05:21:07.981Z,24
2016-03-22T05:22:07.984Z,24
2016-03-22T05:23:07.986Z,28
2016-03-22T05:24:08.005Z,28
2016-03-22T05:25:07.991Z,32
2016-03-22T05:26:07.978Z,32
2016-03-22T05:27:07.981Z,40
2016-03-22T05:28:07.984Z,44
2016-03-22T05:29:07.972Z,48
2016-03-22T05:30:07.974Z,52
2016-03-22T05:31:07.977Z,60
2016-03-22T05:32:07.979Z,64
2016-03-22T05:33:07.997Z,72
2016-03-22T05:34:07.985Z,76
2016-03-22T05:35:07.955Z,88
2016-03-22T05:36:08.006Z,96
2016-03-22T05:37:07.969Z,108
2016-03-22T05:38:07.942Z,116
2016-03-22T05:39:07.977Z,128
2016-03-22T05:40:16.814Z,140
2016-03-22T05:41:07.928Z,152
2016-03-22T05:42:07.931Z,168
2016-03-22T05:43:07.950Z,188
2016-03-22T05:44:07.937Z,204
2016-03-22T05:45:07.955Z,216
2016-03-22T05:46:07.927Z,224
2016-03-22T05:47:07.789Z,228
2016-03-22T05:48:07.916Z,236
2016-03-22T05:49:07.919Z,236
2016-03-22T05:50:07.953Z,248
2016-03-22T05:51:07.909Z,260
2016-03-22T05:52:07.944Z,276
2016-03-22T05:53:07.930Z,284
2016-03-22T05:54:07.933Z,296
2016-03-22T05:55:07.888Z,308
2016-03-22T05:56:07.907Z,324
2016-03-22T05:57:07.926Z,340
2016-03-22T05:58:07.928Z,360
2016-03-22T05:59:07.916Z,368
2016-03-22T06:00:07.918Z,380
2016-03-22T06:01:07.905Z,392
2016-03-22T06:02:07.923Z,400
2016-03-22T06:03:07.926Z,404
2016-03-22T06:04:07.913Z,408
2016-03-22T06:05:07.900Z,408
2016-03-22T06:06:07.903Z,416
2016-03-22T06:07:07.953Z,420
2016-03-22T06:08:07.892Z,436
2016-03-22T06:09:07.895Z,448
2016-03-22T06:10:07.945Z,464
2016-03-22T06:11:07.885Z,484
2016-03-22T06:12:07.919Z,500
2016-03-22T06:13:07.905Z,520
2016-03-22T06:14:07.878Z,544
2016-03-22T06:15:07.895Z,564
2016-03-22T06:16:07.883Z,588
2016-03-22T06:17:07.729Z,620
2016-03-22T06:18:07.903Z,656
2016-03-22T06:19:07.968Z,696
2016-03-22T06:20:07.862Z,736
2016-03-22T06:21:07.897Z,772
2016-03-22T06:22:07.883Z,808
2016-03-22T06:23:07.871Z,840
2016-03-22T06:24:07.888Z,864
2016-03-22T06:25:08.266Z,884
2016-03-22T06:26:07.879Z,912
2016-03-22T06:27:07.912Z,948
2016-03-22T06:28:07.868Z,992
2016-03-22T06:29:07.870Z,1040
2016-03-22T06:30:07.874Z,1088
2016-03-22T06:31:07.876Z,1128
2016-03-22T06:32:07.879Z,1168
2016-03-22T06:33:07.866Z,1200
2016-03-22T06:34:07.884Z,1232
2016-03-22T06:35:07.871Z,1276
2016-03-22T06:36:07.873Z,1320
2016-03-22T06:37:07.862Z,1360
2016-03-22T06:38:07.848Z,1396
2016-03-22T06:39:07.882Z,1436
2016-03-22T06:40:07.869Z,1476
2016-03-22T06:41:07.887Z,1504
2016-03-22T06:42:07.859Z,1540
2016-03-22T06:43:07.892Z,1572
2016-03-22T06:44:07.865Z,1608
2016-03-22T06:45:07.867Z,1656
2016-03-22T06:46:07.854Z,1680
2016-03-22T06:47:07.856Z,1684
2016-03-22T06:48:07.891Z,1688
2016-03-22T06:49:07.846Z,1692
2016-03-22T06:50:07.864Z,1720
2016-03-22T06:51:07.866Z,1748
2016-03-22T06:52:07.869Z,1776
2016-03-22T06:53:07.701Z,1784
2016-03-22T06:54:07.844Z,1780
2016-03-22T06:55:07.863Z,1784
2016-03-22T06:56:07.849Z,1800
2016-03-22T06:57:07.852Z,1824
2016-03-22T06:58:07.854Z,1852
2016-03-22T06:59:07.827Z,1860
2016-03-22T07:00:07.860Z,1872
2016-03-22T07:01:07.848Z,1884
2016-03-22T07:02:07.881Z,1920
2016-03-22T07:03:07.899Z,1944
2016-03-22T07:04:07.871Z,1968
2016-03-22T07:05:07.826Z,2016
2016-03-22T07:06:07.862Z,2088
2016-03-22T07:07:07.864Z,2196
2016-03-22T07:08:07.825Z,2308
2016-03-22T07:09:07.827Z,2432
2016-03-22T07:10:07.830Z,2540
2016-03-22T07:11:07.833Z,2652
2016-03-22T07:12:07.866Z,2740
2016-03-22T07:13:07.823Z,2820
2016-03-22T07:14:07.841Z,2904
2016-03-22T07:15:07.859Z,2992
2016-03-22T07:16:07.814Z,3120
2016-03-22T07:17:07.864Z,3224
2016-03-22T07:18:07.836Z,3336
2016-03-22T07:19:07.838Z,3428
2016-03-22T07:20:07.825Z,3504
2016-03-22T07:21:07.859Z,3600
2016-03-22T07:22:07.815Z,3724
2016-03-22T07:23:07.849Z,3868
2016-03-22T07:24:07.835Z,3996
2016-03-22T07:25:07.870Z,4104
2016-03-22T07:26:07.826Z,4196
2016-03-22T07:27:07.859Z,4292
2016-03-22T07:28:07.878Z,4404
2016-03-22T07:29:07.849Z,4460
2016-03-22T07:30:07.852Z,4504
2016-03-22T07:31:07.823Z,4556
2016-03-22T07:32:07.842Z,4628
2016-03-22T07:33:07.845Z,4680
2016-03-22T07:34:07.815Z,4716
2016-03-22T07:35:07.834Z,4756
2016-03-22T07:36:07.806Z,4820
2016-03-22T07:37:07.824Z,4836
2016-03-22T07:38:07.842Z,4880
2016-03-22T07:39:07.845Z,4940
2016-03-22T07:40:07.832Z,5008
2016-03-22T07:41:07.819Z,5068
2016-03-22T07:42:07.837Z,5120
2016-03-22T07:43:07.855Z,5200
2016-03-22T07:44:07.828Z,5288
2016-03-22T07:45:07.845Z,5412
2016-03-22T07:46:07.880Z,5624
2016-03-22T07:47:07.898Z,5760
2016-03-22T07:48:07.963Z,5908
2016-03-22T07:49:07.841Z,6040
2016-03-22T07:50:07.858Z,6148
2016-03-22T07:51:07.800Z,6232
2016-03-22T07:52:07.818Z,6340
2016-03-22T07:53:07.820Z,6464
2016-03-22T07:54:07.823Z,6692
2016-03-22T07:55:07.841Z,6892
2016-03-22T07:56:07.828Z,7084
2016-03-22T07:57:07.846Z,7256
2016-03-22T07:58:07.849Z,7116
2016-03-22T07:59:07.837Z,6980
2016-03-22T08:00:07.854Z,6912
2016-03-22T08:01:07.842Z,6608
2016-03-22T08:02:07.860Z,7124
2016-03-22T08:03:07.862Z,7192
2016-03-22T08:04:07.834Z,7040
2016-03-22T08:05:07.837Z,6868
2016-03-22T08:06:07.714Z,6896
2016-03-22T08:07:07.843Z,6832
2016-03-22T08:08:07.861Z,6748
2016-03-22T08:09:07.864Z,6692
2016-03-22T08:10:07.709Z,7180
2016-03-22T08:11:07.712Z,6652
2016-03-22T08:12:07.872Z,6536
2016-03-22T08:13:07.858Z,6288
2016-03-22T08:14:07.861Z,6108
2016-03-22T08:15:07.864Z,6044
2016-03-22T08:16:07.882Z,5936
2016-03-22T08:17:07.869Z,5836
2016-03-22T08:18:07.888Z,5776
2016-03-22T08:19:07.891Z,5812
2016-03-22T08:20:07.877Z,5896
2016-03-22T08:21:07.880Z,6000
2016-03-22T08:22:07.882Z,6136
2016-03-22T08:23:07.870Z,6328
2016-03-22T08:24:07.872Z,6576
2016-03-22T08:25:07.922Z,6780
2016-03-22T08:26:07.877Z,6964
2016-03-22T08:27:07.912Z,7196
2016-03-22T08:28:07.930Z,7764
2016-03-22T08:29:08.121Z,8176
2016-03-22T08:30:07.921Z,8364
2016-03-22T08:31:07.954Z,8516
2016-03-22T08:32:07.940Z,8592
2016-03-22T08:33:07.912Z,9008
2016-03-22T08:34:07.884Z,8672
2016-03-22T08:35:07.917Z,8576
2016-03-22T08:36:07.920Z,8520
2016-03-22T08:37:07.922Z,8568
2016-03-22T08:38:07.910Z,8748
2016-03-22T08:39:07.787Z,8788
2016-03-22T08:40:07.915Z,8916
2016-03-22T08:41:07.934Z,9144
2016-03-22T08:42:07.920Z,9304
2016-03-22T08:43:07.923Z,9524
2016-03-22T08:44:07.911Z,9804
2016-03-22T08:45:07.929Z,10148
2016-03-22T08:46:07.947Z,10244
2016-03-22T08:47:07.933Z,10144
2016-03-22T08:48:07.234Z,9960
2016-03-22T08:49:07.955Z,9736
2016-03-22T08:50:07.942Z,9412
2016-03-22T08:51:07.945Z,8824
2016-03-22T08:52:07.947Z,8180
2016-03-22T08:53:07.950Z,7784
2016-03-22T08:54:07.796Z,7600
2016-03-22T08:55:07.988Z,7480
2016-03-22T08:56:07.974Z,7544
2016-03-22T08:57:07.945Z,7376
2016-03-22T08:58:07.949Z,7296
2016-03-22T08:59:07.966Z,7168
2016-03-22T09:00:07.797Z,7068
2016-03-22T09:01:07.972Z,6940
2016-03-22T09:02:07.975Z,6796
2016-03-22T09:03:07.805Z,6756
2016-03-22T09:04:07.995Z,6904
2016-03-22T09:05:07.967Z,7032
2016-03-22T09:06:07.970Z,7000
2016-03-22T09:07:07.970Z,6952
2016-03-22T09:08:07.972Z,6888
2016-03-22T09:09:07.959Z,6876
2016-03-22T09:10:08.009Z,6900
2016-03-22T09:11:07.995Z,6924
2016-03-22T09:12:07.967Z,6976
2016-03-22T09:13:08.001Z,7048
2016-03-22T09:14:07.989Z,7104
2016-03-22T09:15:08.022Z,7112
2016-03-22T09:16:07.994Z,7092
2016-03-22T09:17:07.980Z,7040
2016-03-22T09:18:08.046Z,6992
2016-03-22T09:19:07.985Z,6928
2016-03-22T09:20:07.989Z,6844
2016-03-22T09:21:07.991Z,6848
2016-03-22T09:22:08.009Z,6960
2016-03-22T09:23:08.012Z,6512
2016-03-22T09:24:07.999Z,6400
2016-03-22T09:25:08.002Z,6316
2016-03-22T09:26:08.004Z,6264
2016-03-22T09:27:08.024Z,6280
2016-03-22T09:28:08.010Z,6240
2016-03-22T09:29:07.997Z,6252
2016-03-22T09:30:08.046Z,6308
2016-03-22T09:31:08.018Z,6376
2016-03-22T09:32:08.006Z,6448
2016-03-22T09:33:07.851Z,6504
2016-03-22T09:34:08.011Z,6440
2016-03-22T09:35:07.998Z,6460
2016-03-22T09:36:08.000Z,6548
2016-03-22T09:37:09.426Z,6684
2016-03-22T09:38:07.990Z,6784
2016-03-22T09:39:08.024Z,6884
2016-03-22T09:40:08.011Z,7060
2016-03-22T09:41:08.045Z,7256
2016-03-22T09:42:08.033Z,7304
2016-03-22T09:43:08.035Z,7276
2016-03-22T09:44:08.022Z,7736
2016-03-22T09:45:08.040Z,8072
2016-03-22T09:46:08.044Z,7168
2016-03-22T09:47:08.030Z,6836
2016-03-22T09:48:08.033Z,7064
2016-03-22T09:49:08.019Z,8152
2016-03-22T09:50:08.038Z,8252
2016-03-22T09:51:08.057Z,8664
2016-03-22T09:52:08.059Z,8660
2016-03-22T09:53:08.030Z,8876
2016-03-22T09:54:08.018Z,9056
2016-03-22T09:55:08.051Z,9144
2016-03-22T09:56:08.024Z,9480
2016-03-22T09:57:08.901Z,9836
2016-03-22T09:58:07.872Z,10184
2016-03-22T09:59:08.046Z,10448
2016-03-22T10:00:08.034Z,10796
2016-03-22T10:01:08.037Z,11224
2016-03-22T10:02:08.039Z,11540
2016-03-22T10:03:08.057Z,11676
2016-03-22T10:04:08.029Z,11760
2016-03-22T10:05:08.062Z,11688
2016-03-22T10:06:08.066Z,11312
2016-03-22T10:07:08.053Z,10976
2016-03-22T10:08:08.039Z,10872
2016-03-22T10:09:08.074Z,10860
2016-03-22T10:10:08.061Z,10824
2016-03-22T10:11:08.064Z,10636
2016-03-22T10:12:08.066Z,10548
2016-03-22T10:13:08.069Z,10156
2016-03-22T10:14:08.056Z,9504
2016-03-22T10:15:08.075Z,8780
2016-03-22T10:16:08.124Z,7328
2016-03-22T10:17:08.095Z,6892
2016-03-22T10:18:08.082Z,6732
2016-03-22T10:19:08.069Z,6708
2016-03-22T10:20:08.103Z,6840
2016-03-22T10:21:08.074Z,7048
2016-03-22T10:22:08.093Z,7384
2016-03-22T10:23:08.127Z,7424
2016-03-22T10:24:08.098Z,7532
2016-03-22T10:25:08.101Z,7752
2016-03-22T10:26:08.151Z,7904
2016-03-22T10:27:08.107Z,8008
2016-03-22T10:28:08.109Z,8032
2016-03-22T10:29:08.112Z,8080
2016-03-22T10:30:08.115Z,8360
2016-03-22T10:31:08.101Z,8916
2016-03-22T10:32:08.120Z,9104
2016-03-22T10:33:08.107Z,8392
2016-03-22T10:34:08.109Z,8704
2016-03-22T10:35:08.143Z,8608
2016-03-22T10:36:08.115Z,8512
2016-03-22T10:37:08.118Z,8216
2016-03-22T10:38:08.136Z,6788
2016-03-22T10:39:08.139Z,6728
2016-03-22T10:40:08.142Z,6832
2016-03-22T10:41:08.316Z,6872
2016-03-22T10:42:08.146Z,6884
2016-03-22T10:43:08.133Z,6864
2016-03-22T10:44:07.980Z,6744
2016-03-22T10:45:08.123Z,6532
2016-03-22T10:46:08.173Z,6276
2016-03-22T10:47:08.160Z,6036
2016-03-22T10:48:08.147Z,5840
2016-03-22T10:49:08.150Z,5724
2016-03-22T10:50:08.184Z,5688
2016-03-22T10:51:08.155Z,5692
2016-03-22T10:52:08.141Z,5760
2016-03-22T10:53:08.176Z,5952
2016-03-22T10:54:08.179Z,7316
2016-03-22T10:55:08.182Z,7704
2016-03-22T10:56:08.278Z,7664
2016-03-22T10:57:08.187Z,7272
2016-03-22T10:58:08.174Z,6972
2016-03-22T10:59:08.160Z,7736
2016-03-22T11:00:08.211Z,7664
2016-03-22T11:01:08.151Z,8280
2016-03-22T11:02:08.184Z,8308
2016-03-22T11:03:08.188Z,8332
2016-03-22T11:04:08.235Z,8276
2016-03-22T11:05:08.169Z,8672
2016-03-22T11:06:08.165Z,8908
2016-03-22T11:07:08.224Z,9332
2016-03-22T11:08:08.191Z,9792
2016-03-22T11:09:08.203Z,10132
2016-03-22T11:10:08.188Z,10532
2016-03-22T11:11:08.204Z,10872
2016-03-22T11:12:08.157Z,10960
2016-03-22T11:13:08.158Z,10708
2016-03-22T11:14:08.158Z,10460
2016-03-22T11:15:08.224Z,10328
2016-03-22T11:16:08.179Z,10304
2016-03-22T11:17:08.368Z,10388
2016-03-22T11:18:08.182Z,10460
2016-03-22T11:19:08.185Z,10708
2016-03-22T11:20:08.186Z,10568
2016-03-22T11:21:08.188Z,10088
2016-03-22T11:22:08.191Z,9220
2016-03-22T11:23:08.193Z,10560
2016-03-22T11:24:08.165Z,10576
2016-03-22T11:25:08.199Z,9400
2016-03-22T11:26:08.201Z,10232
2016-03-22T11:27:08.188Z,9896
2016-03-22T11:28:08.191Z,9476
2016-03-22T11:29:08.178Z,9240
2016-03-22T11:30:08.196Z,8024
2016-03-22T11:31:08.183Z,7168
2016-03-22T11:32:08.218Z,6892
2016-03-22T11:33:08.236Z,6624
2016-03-22T11:34:08.223Z,6340
2016-03-22T11:35:08.194Z,6092
2016-03-22T11:36:08.197Z,5900
2016-03-22T11:37:08.247Z,5788
2016-03-22T11:38:08.265Z,5768
2016-03-22T11:39:08.236Z,5820
2016-03-22T11:40:08.238Z,5932
2016-03-22T11:41:08.226Z,6056
2016-03-22T11:42:08.228Z,6220
2016-03-22T11:43:08.263Z,6432
2016-03-22T11:44:08.250Z,6668
2016-03-22T11:45:08.283Z,7008
2016-03-22T11:46:08.224Z,7372
2016-03-22T11:47:08.227Z,7616
2016-03-22T11:48:08.244Z,7816
2016-03-22T11:49:08.247Z,8140
2016-03-22T11:50:08.218Z,8460
2016-03-22T11:51:08.238Z,8628
2016-03-22T11:52:08.255Z,9064
2016-03-22T11:53:08.258Z,9948
2016-03-22T11:54:08.276Z,8960
2016-03-22T11:55:08.248Z,9464
2016-03-22T11:56:08.095Z,8916
2016-03-22T11:57:08.285Z,8768
2016-03-22T11:58:08.287Z,9828
2016-03-22T11:59:08.290Z,9680
2016-03-22T12:00:08.246Z,9444
2016-03-22T12:01:08.279Z,8396
2016-03-22T12:02:08.282Z,7652
2016-03-22T12:03:08.285Z,7612
2016-03-22T12:04:08.287Z,7636
2016-03-22T12:05:08.275Z,7728
2016-03-22T12:06:08.325Z,7796
2016-03-22T12:07:08.295Z,7860
2016-03-22T12:08:08.314Z,7936
2016-03-22T12:09:08.300Z,7984
2016-03-22T12:10:08.289Z,7976
2016-03-22T12:11:08.275Z,8052
2016-03-22T12:12:08.325Z,7784
2016-03-22T12:13:08.297Z,7676
2016-03-22T12:14:08.299Z,7628
2016-03-22T12:15:08.333Z,7576
2016-03-22T12:16:08.336Z,7428
2016-03-22T12:17:08.354Z,7140
2016-03-22T12:18:08.357Z,6744
2016-03-22T12:19:08.343Z,6340
2016-03-22T12:20:08.331Z,6124
2016-03-22T12:21:08.365Z,6056
2016-03-22T12:22:08.336Z,6076
2016-03-22T12:23:08.355Z,6208
2016-03-22T12:24:08.341Z,7064
2016-03-22T12:25:08.360Z,6352
2016-03-22T12:26:08.347Z,6484
2016-03-22T12:27:08.349Z,6712
2016-03-22T12:28:08.336Z,7800
2016-03-22T12:29:08.339Z,7612
2016-03-22T12:30:08.389Z,8252
2016-03-22T12:31:08.360Z,8192
2016-03-22T12:32:08.363Z,8344
2016-03-22T12:33:08.381Z,7976
2016-03-22T12:34:08.353Z,8120
2016-03-22T12:35:08.370Z,8080
2016-03-22T12:36:08.359Z,8004
2016-03-22T12:37:08.361Z,7916
2016-03-22T12:38:08.425Z,7276
2016-03-22T12:39:08.398Z,6692
2016-03-22T12:40:08.416Z,6864
2016-03-22T12:41:08.372Z,7088
2016-03-22T12:42:08.390Z,7340
2016-03-22T12:43:08.221Z,7564
2016-03-22T12:44:08.411Z,7680
2016-03-22T12:45:08.382Z,7816
2016-03-22T12:46:08.433Z,9188
2016-03-22T12:47:08.388Z,9084
2016-03-22T12:48:08.422Z,8936
2016-03-22T12:49:08.409Z,8988
2016-03-22T12:50:08.458Z,9148
2016-03-22T12:51:08.430Z,7988
2016-03-22T12:52:08.417Z,8320
2016-03-22T12:53:08.436Z,8660
2016-03-22T12:54:08.422Z,9692
2016-03-22T12:55:08.424Z,8704
2016-03-22T12:56:08.428Z,8760
2016-03-22T12:57:08.415Z,8524
2016-03-22T12:58:08.402Z,8456
2016-03-22T12:59:08.435Z,8264
2016-03-22T13:00:08.423Z,8168
2016-03-22T13:01:08.456Z,8060
2016-03-22T13:02:08.443Z,7992
2016-03-22T13:03:08.431Z,7928
2016-03-22T13:04:08.481Z,7856
2016-03-22T13:05:08.467Z,7772
2016-03-22T13:06:08.439Z,7708
2016-03-22T13:07:08.400Z,7556
2016-03-22T13:08:08.480Z,7356
2016-03-22T13:09:08.500Z,7224
2016-03-22T13:10:08.502Z,7004
2016-03-22T13:11:08.458Z,6808
2016-03-22T13:12:08.444Z,6632
2016-03-22T13:13:08.494Z,6440
2016-03-22T13:14:08.466Z,6120
2016-03-22T13:15:08.499Z,5800
2016-03-22T13:16:08.502Z,5684
2016-03-22T13:17:08.489Z,5748
2016-03-22T13:18:08.507Z,5972
2016-03-22T13:19:08.494Z,6792
2016-03-22T13:20:08.497Z,6672
2016-03-22T13:21:08.515Z,6656
2016-03-22T13:22:08.518Z,7180
2016-03-22T13:23:08.521Z,7732
2016-03-22T13:24:08.523Z,7728
2016-03-22T13:25:08.510Z,7532
2016-03-22T13:26:08.528Z,7188
2016-03-22T13:27:08.516Z,8084
2016-03-22T13:28:08.518Z,7808
2016-03-22T13:29:08.521Z,8028
2016-03-22T13:30:08.524Z,8312
2016-03-22T13:31:08.542Z,8460
2016-03-22T13:32:08.514Z,8348
2016-03-22T13:33:08.548Z,8172
2016-03-22T13:34:08.519Z,8008
2016-03-22T13:35:08.506Z,7488
2016-03-22T13:36:08.539Z,7676
2016-03-22T13:37:08.559Z,7520
2016-03-22T13:38:08.545Z,7468
2016-03-22T13:39:08.564Z,7376
2016-03-22T13:40:08.567Z,7400
2016-03-22T13:41:08.569Z,7276
2016-03-22T13:42:08.556Z,6140
2016-03-22T13:43:08.559Z,6036
2016-03-22T13:44:08.562Z,6060
2016-03-22T13:45:08.564Z,6132
2016-03-22T13:46:08.582Z,6312
2016-03-22T13:47:08.616Z,7156
2016-03-22T13:48:08.604Z,7456
2016-03-22T13:49:08.575Z,6864
2016-03-22T13:50:08.594Z,6548
2016-03-22T13:51:08.612Z,6512